Latest Coastal Weather Observations for Williamtown

IDN60701

Issued at 6:51 am EST Friday 21 July 2017 (issued every 10 minutes, with the page automatically refreshed every 10 minutes)

About coastal observations | Map of coastal stations | Coastal observations for NSW | Marine services | Other Formats
Station Details ID: 061078 Name: WILLIAMTOWN RAAF Lat: -32.79 Lon: 151.84 Height: 7.5 m
Data from the previous 72 hours. | See also: Recent months at Williamtown
Date/Time
EST
Temp
°C
Wind Pressure Rain since
9am
mm
Weather Cloud Vis
km
Sea
Height
m
Swell
Dir  Spd
kts
Gust
kts
hPa Trend Height
m
Period
s
Dir
21/06:30am 5.4 WNW 10 13 1019.0 - 0.0 - Partly cloudy 10 - - - -
21/06:00am 4.6 NW 9 10 1018.6 R 0.0 - - 10 - - - -
21/05:30am 5.0 WNW 9 12 1018.1 - 0.0 - - 10 - - - -
21/05:00am 4.8 WNW 9 11 1017.7 - 0.0 - - 10 - - - -
21/04:30am 4.9 WNW 9 10 1017.7 - 0.0 - - 10 - - - -
21/04:00am 5.1 WNW 8 10 1017.5 - 0.0 - - 10 - - - -
21/03:30am 6.2 WNW 10 13 1017.4 - 0.0 - - 10 - - - -
21/03:00am 6.6 WNW 10 15 1017.4 R 0.0 - - 10 - - - -
21/02:30am 7.4 WNW 11 14 1017.2 - 0.0 - - 10 - - - -
21/02:00am 7.6 WNW 11 16 1017.0 - 0.0 - - 10 - - - -
21/01:30am 6.9 WNW 10 12 1016.9 - 0.0 - - 10 - - - -
21/01:00am 7.2 WNW 9 10 1017.0 - 0.0 - - 10 - - - -
21/12:30am 7.4 WNW 9 11 1017.0 - 0.0 - Partly cloudy 10 - - - -
21/12:00am 7.8 WNW 9 12 1016.9 R 0.0 - Mostly clear 10 - - - -
 
Date/Time
EST
Temp
°C
Wind Pressure Rain since
9am
mm
Weather Cloud Vis
km
Sea
Height
m
Swell
Dir  Spd
kts
Gust
kts
hPa Trend Height
m
Period
s
Dir
20/11:30pm 8.1 WNW 9 12 1017.0 - 0.0 - - 10 - - - -
20/11:00pm 8.4 WNW 10 12 1016.8 - 0.0 - - 10 - - - -
20/10:30pm 7.6 WNW 9 10 1016.6 - 0.0 - - 10 - - - -
20/10:00pm 8.2 WNW 8 8 1016.4 - 0.0 - - 10 - - - -
20/09:30pm 9.3 WNW 8 10 1016.1 - 0.0 - - 10 - - - -
20/09:00pm 10.5 WNW 11 14 1015.7 R 0.0 - - 10 - - - -
20/08:30pm 11.3 WNW 10 14 1015.6 - 0.0 - - 10 - - - -
20/08:00pm 12.2 WSW 13 16 1015.4 - 0.0 - - 10 - - - -
20/07:30pm 13.0 WSW 13 20 1015.0 - 0.0 - - 10 - - - -
20/07:00pm 13.6 WSW 15 22 1014.6 - 0.0 - - 10 - - - -
20/06:30pm 13.7 WSW 14 22 1014.0 - 0.0 - - 10 - - - -
20/06:00pm 14.5 WSW 16 21 1013.3 R 0.0 - - 10 - - - -
20/05:30pm 15.0 WSW 14 19 1012.6 - 0.0 - - 10 - - - -
20/05:00pm 15.1 WSW 11 18 1012.1 - 0.0 - - 10 - - - -
20/04:30pm 16.9 WSW 12 17 1011.7 - 0.0 - - 10 - - - -
20/04:00pm 17.8 W 12 19 1011.4 - 0.0 - - 10 - - - -
20/03:30pm 18.3 W 17 22 1011.2 - 0.0 - - 10 - - - -
20/03:00pm 18.4 W 19 24 1011.2 R 0.0 - - 10 - - - -
20/02:30pm 18.5 W 18 28 1011.3 - 0.0 - - 10 - - - -
20/02:00pm 18.3 WNW 19 26 1011.2 - 0.0 - - 10 - - - -
20/01:30pm 17.9 WNW 17 25 1011.2 - 0.0 - - 10 - - - -
20/01:26pm 18.2 WNW 17 27 1011.2 - 0.0 - - 10 - - - -
20/01:00pm 17.1 WNW 20 26 1011.4 - 0.0 - - 10 - - - -
20/12:30pm 17.0 WNW 17 27 1012.0 - 0.0 - - 10 - - - -
20/12:24pm 16.9 WNW 17 27 1012.2 - 0.0 - - 10 - - - -
20/12:00pm 16.2 WNW 18 26 1012.6 F 0.0 - - 10 - - - -
20/11:30am 15.8 WNW 20 27 1013.1 - 0.0 - - 10 - - - -
20/11:07am 15.7 WNW 19 29 1013.6 - 0.0 - - 10 - - - -
20/11:00am 15.2 WNW 22 29 1013.6 - 0.0 - - 10 - - - -
20/10:30am 15.0 WNW 21 27 1013.9 - 0.0 - - 10 - - - -
20/10:00am 14.1 WNW 20 27 1014.1 - 0.0 - - 10 - - - -
20/09:30am 13.4 WNW 20 28 1014.2 - 0.0 - - 10 - - - -
20/09:00am 12.7 WNW 19 28 1014.3 F 0.0 - - 10 - - - -
20/08:30am 11.9 WNW 19 27 1013.9 - 0.0 - - 10 - - - -
20/08:00am 11.2 WNW 16 22 1013.6 - 0.0 - - 10 - - - -
20/07:30am 10.3 WNW 16 20 1013.4 - 0.0 - - 10 - - - -
20/07:00am 9.9 WNW 16 20 1013.4 - 0.0 - - 10 - - - -
20/06:30am 9.9 WNW 14 17 1013.4 - 0.0 - - 10 - - - -
20/06:00am 9.6 WNW 11 16 1013.4 R 0.0 - - 10 - - - -
20/05:30am 9.2 WNW 10 13 1013.1 - 0.0 - - 10 - - - -
20/05:00am 9.5 WNW 11 15 1012.8 - 0.0 - - 10 - - - -
20/04:30am 10.0 WNW 13 18 1012.8 - 0.0 - - 10 - - - -
20/04:00am 10.2 WNW 14 17 1012.7 - 0.0 - - 10 - - - -
20/03:30am 10.5 WNW 16 20 1012.6 - 0.0 - - 10 - - - -
20/03:00am 10.5 WNW 17 21 1012.3 R 0.0 - - 10 - - - -
20/02:30am 10.7 WNW 19 26 1012.1 - 0.0 - - 10 - - - -
20/02:00am 10.6 WNW 18 23 1011.7 - 0.0 - - 10 - - - -
20/01:30am 10.5 WNW 16 22 1011.3 - 0.0 - - 10 - - - -
20/01:00am 10.6 WNW 16 20 1011.4 - 0.0 - - 10 - - - -
20/12:30am 10.7 WNW 15 22 1011.6 - 0.0 - - 10 - - - -
20/12:00am 11.1 WNW 17 22 1011.6 R 0.0 - - 10 - - - -
 
Date/Time
EST
Temp
°C
Wind Pressure Rain since
9am
mm
Weather Cloud Vis
km
Sea
Height
m
Swell
Dir  Spd
kts
Gust
kts
hPa Trend Height
m
Period
s
Dir
19/11:30pm 11.4 WNW 17 24 1011.5 - 0.0 - - 10 - - - -
19/11:00pm 11.6 WNW 17 22 1011.8 - 0.0 - - 10 - - - -
19/10:30pm 11.5 WNW 15 21 1011.9 - 0.0 - - 10 - - - -
19/10:00pm 11.8 WNW 17 26 1011.6 - 0.0 - - 10 - - - -
19/09:55pm 12.0 WNW 16 26 1011.6 - 0.0 - - 10 - - - -
19/09:30pm 12.2 W 15 21 1011.4 - 0.0 - - 10 - - - -
19/09:26pm 12.0 WNW 15 25 1011.4 - 0.0 - - 10 - - - -
19/09:00pm 12.3 WNW 18 25 1011.3 R 0.0 - - 10 - - - -
19/08:30pm 12.2 WNW 15 19 1011.0 - 0.0 - - 10 - - - -
19/08:00pm 12.5 WNW 15 19 1010.9 - 0.0 - - 10 - - - -
19/07:30pm 12.7 WNW 14 17 1010.5 - 0.0 - - 10 - - - -
19/07:00pm 13.6 W 14 19 1010.0 - 0.0 - - 10 - - - -
19/06:30pm 14.4 W 16 23 1009.6 - 0.0 - Partly cloudy 10 - - - -
19/06:02pm 15.1 W 15 27 1009.2 - 0.0 - Cloudy 10 - - - -
19/06:00pm 15.0 W 13 20 1009.1 R 0.0 - Mostly cloudy 10 - - - -
19/05:30pm 14.7 W 8 11 1008.4 - 0.0 - Cloudy 10 - - - -
19/05:00pm 14.8 W 8 10 1007.7 - 0.0 - Cloudy 10 - - - -
19/04:30pm 14.8 WSW 7 9 1007.2 - 0.0 - Partly cloudy 10 - - - -
19/04:00pm 15.7 W 14 19 1006.8 - 0.0 - Partly cloudy 10 - - - -
19/03:30pm 15.7 WNW 11 17 1006.6 - 0.0 - Partly cloudy 10 - - - -
19/03:00pm 15.6 WNW 17 22 1006.4 R 0.0 - Mostly cloudy 10 - - - -
19/02:30pm 17.1 WNW 19 27 1005.9 - 0.0 - Partly cloudy 10 - - - -
19/02:00pm 16.2 WNW 18 28 1005.8 - 0.0 - Partly cloudy 10 - - - -
19/01:30pm 16.2 W 20 28 1005.7 - 0.0 - Partly cloudy 10 - - - -
19/01:00pm 16.1 WNW 22 30 1005.9 - 0.0 - Partly cloudy 10 - - - -
19/12:30pm 16.3 WNW 23 35 1006.1 - 0.0 - - 10 - - - -
19/12:12pm 15.5 WNW 27 38 1005.8 - 0.0 - - 10 - - - -
19/12:00pm 15.5 WNW 25 34 1006.5 F 0.0 - - 10 - - - -
19/11:30am 15.1 WNW 24 33 1007.2 - 0.0 - Mostly clear 10 - - - -
19/11:21am 15.5 WNW 23 33 1007.3 - 0.0 - Mostly clear 10 - - - -
19/11:00am 15.0 WNW 24 32 1007.5 - 0.0 - Mostly clear 10 - - - -
19/10:47am 14.8 WNW 25 36 1007.5 - 0.0 - Mostly clear 10 - - - -
19/10:30am 14.7 WNW 24 31 1007.6 - 0.0 - Mostly clear 10 - - - -
19/10:00am 14.3 WNW 19 27 1008.2 - 0.0 - Mostly clear 10 - - - -
19/09:30am 13.7 WNW 19 29 1008.5 - 0.0 - Mostly clear 10 - - - -
19/09:26am 13.6 WNW 19 29 1008.5 - 0.0 - Mostly clear 10 - - - -
19/09:00am 13.6 WNW 17 26 1008.4 F 0.0 - Partly cloudy 10 - - - -
19/08:30am 11.9 WNW 19 25 1008.1 - 0.0 - - 10 - - - -
19/08:00am 10.6 WNW 14 18 1008.6 - 0.0 - - 10 - - - -
19/07:30am 9.5 WNW 12 15 1008.6 - 0.0 - - 10 - - - -
19/07:00am 9.1 WNW 9 13 1008.8 - 0.0 - - 10 - - - -
19/06:30am 9.4 W 13 17 1008.6 - 0.0 - - 10 - - - -
19/06:00am 9.2 WNW 11 15 1008.3 F 0.0 - - 10 - - - -
19/05:30am 9.4 W 10 13 1008.1 - 0.0 - - 10 - - - -
19/05:00am 9.8 W 10 13 1007.7 - 0.0 - - 10 - - - -
19/04:30am 10.0 W 10 14 1007.7 - 0.0 - - 10 - - - -
19/04:00am 10.7 WNW 12 16 1007.8 - 0.0 - - 10 - - - -
19/03:30am 11.0 WNW 14 17 1007.9 - 0.0 - - 10 - - - -
19/03:00am 10.7 WNW 10 15 1008.4 S 0.0 - - 10 - - - -
19/02:30am 11.9 NW 9 11 1008.4 - 0.0 - - 10 - - - -
19/02:00am 11.9 NW 9 14 1008.8 - 0.0 - - 10 - - - -
19/01:30am 12.0 WNW 11 16 1008.9 - 0.0 - Partly cloudy 10 - - - -
19/01:00am 11.3 NW 7 10 1009.0 - 0.0 - - 10 - - - -
19/12:30am 11.3 WNW 7 9 1008.9 - 0.0 - Partly cloudy 10 - - - -
19/12:00am 12.1 WNW 8 9 1009.1 R 0.0 - Partly cloudy 10 - - - -
 
Date/Time
EST
Temp
°C
Wind Pressure Rain since
9am
mm
Weather Cloud Vis
km
Sea
Height
m
Swell
Dir  Spd
kts
Gust
kts
hPa Trend Height
m
Period
s
Dir
18/11:30pm 12.8 NW 10 12 1009.2 - 0.0 - Partly cloudy 10 - - - -
18/11:00pm 14.5 NW 9 14 1009.3 - 0.0 - Partly cloudy 10 - - - -
18/10:30pm 14.3 NNW 7 8 1009.3 - 0.0 - - 10 - - - -
18/10:00pm 15.7 NNW 8 10 1009.3 - 0.0 - - 10 - - - -
18/09:30pm 15.8 NNW 7 10 1009.3 - 0.0 - - 10 - - - -
18/09:00pm 15.0 N 7 9 1009.2 R 0.0 - - 10 - - - -
18/08:30pm 13.6 NNW 4 5 1009.4 - 0.0 - - 10 - - - -
18/08:00pm 15.5 NNW 6 8 1009.2 - 0.0 - - 10 - - - -
18/07:30pm 16.3 N 7 8 1009.0 - 0.0 - - 10 - - - -
18/07:00pm 17.3 N 7 8 1008.6 - 0.0 - - 10 - - - -
18/06:30pm 19.3 N 7 15 1008.2 - 0.0 - - 10 - - - -
18/06:00pm 20.3 NNW 11 19 1008.3 F 0.0 - Partly cloudy 10 - - - -
18/05:30pm 20.0 NNW 6 8 1008.6 - 0.0 - Partly cloudy 10 - - - -
18/05:00pm 20.7 NNW 6 10 1008.2 - 0.0 - Partly cloudy 10 - - - -
18/04:30pm 22.2 NW 11 17 1008.1 - 0.0 - - 10 - - - -
18/04:00pm 22.8 NW 12 19 1008.2 - 0.0 - - 10 - - - -
18/03:30pm 23.4 NW 12 17 1008.4 - 0.0 - - 10 - - - -
18/03:00pm 23.7 NNW 11 17 1008.6 F 0.0 - Mostly clear 10 - - - -
18/02:50pm 24.0 NW 12 18 1008.6 - 0.0 - Partly cloudy 10 - - - -
18/02:30pm 23.7 NNW 6 8 1008.9 - 0.0 - Partly cloudy 10 - - - -
18/02:00pm 23.0 NNE 6 11 1009.1 - 0.0 - Mostly clear 10 - - - -
18/01:30pm 22.6 N 7 9 1009.7 - 0.0 - Mostly clear 10 - - - -
18/01:00pm 21.9 N 6 8 1010.5 - 0.0 - Mostly clear 10 - - - -
18/12:30pm 21.2 N 5 7 1011.2 - 0.0 - Mostly clear 10 - - - -
18/12:00pm 21.4 N 4 7 1011.9 F 0.0 - - 10 - - - -
18/11:30am 20.0 NNE 3 5 1012.8 - 0.0 - - 10 - - - -
18/11:00am 18.0 NNW 6 8 1013.7 - 0.0 - - 10 - - - -
18/10:30am 16.4 NNW 6 6 1014.4 - 0.0 - - 10 - - - -
18/10:00am 15.3 NNW 6 8 1014.9 - 0.0 - - 10 - - - -
18/09:30am 14.0 NNW 6 8 1015.2 - 0.0 - - 10 - - - -
18/09:00am 12.1 NW 5 7 1015.4 F 0.0 - - 10 - - - -
18/08:30am 10.6 NW 7 8 1015.7 - 0.0 - - 10 - - - -
18/08:00am 10.0 NW 8 10 1015.9 - 0.0 - - 10 - - - -
18/07:30am 9.4 NW 11 13 1015.9 - 0.0 - Mostly clear 10 - - - -
18/07:00am 8.6 NW 10 12 1015.8 - 0.0 - Mostly clear 10 - - - -

Other Formats:

Comma delimited format used in spreadsheet applications
http://www.bom.gov.au/fwo/IDN60701/IDN60701.94776.axf

JavaScript Object Notation format (JSON) in row-major order
http://www.bom.gov.au/fwo/IDN60701/IDN60701.94776.json